createdAt,value
2023-01-05T00:01:41.764Z,7.77
2023-01-05T00:04:08.990Z,7.79
2023-01-05T00:06:37.588Z,7.78
2023-01-05T00:09:05.772Z,7.77
2023-01-05T00:11:51.811Z,7.77
2023-01-05T00:14:49.365Z,7.75
2023-01-05T00:17:38.201Z,7.74
2023-01-05T00:20:26.183Z,7.69
2023-01-05T00:22:54.674Z,7.71
2023-01-05T00:25:28.249Z,7.70
2023-01-05T00:27:56.749Z,7.67
2023-01-05T00:30:31.616Z,7.68
2023-01-05T00:32:59.137Z,7.67
2023-01-05T00:35:27.291Z,7.65
2023-01-05T00:37:55.063Z,7.65
2023-01-05T00:40:22.557Z,7.64
2023-01-05T00:42:49.639Z,7.66
2023-01-05T00:45:19.013Z,7.65
2023-01-05T00:47:46.147Z,7.66
2023-01-05T00:50:16.234Z,7.53
2023-01-05T00:52:44.093Z,7.65
2023-01-05T00:55:11.487Z,7.65
2023-01-05T00:57:38.612Z,7.61
2023-01-05T01:00:08.251Z,7.62
2023-01-05T01:02:35.409Z,7.60
2023-01-05T01:05:02.712Z,7.61
2023-01-05T01:07:30.885Z,7.61
2023-01-05T01:09:57.947Z,7.61
2023-01-05T01:12:25.070Z,7.61
2023-01-05T01:14:52.310Z,7.62
2023-01-05T01:17:19.578Z,7.61
2023-01-05T01:19:46.998Z,7.64
2023-01-05T01:22:15.032Z,7.66
2023-01-05T01:24:42.376Z,7.66
2023-01-05T01:27:09.662Z,7.57
2023-01-05T01:29:36.796Z,7.69
2023-01-05T01:32:04.140Z,7.72
2023-01-05T01:34:31.470Z,7.74
2023-01-05T01:37:00.096Z,7.75
2023-01-05T01:39:32.380Z,7.73
2023-01-05T01:42:04.456Z,7.77
2023-01-05T01:44:52.992Z,7.80
2023-01-05T01:48:00.943Z,7.80
2023-01-05T01:50:28.072Z,7.81
2023-01-05T01:53:00.424Z,7.80
2023-01-05T01:55:29.723Z,7.81
2023-01-05T01:57:58.361Z,7.80
2023-01-05T02:00:25.508Z,7.81
2023-01-05T02:02:55.394Z,7.78
2023-01-05T02:05:29.737Z,7.81
2023-01-05T02:07:57.102Z,7.80
2023-01-05T02:10:44.026Z,7.80
2023-01-05T02:13:31.388Z,7.77
2023-01-05T02:16:10.074Z,7.73
2023-01-05T02:18:57.312Z,7.70
2023-01-05T02:21:56.997Z,7.68
2023-01-05T02:25:11.937Z,7.61
2023-01-05T02:27:59.362Z,7.59
2023-01-05T02:30:47.933Z,7.55
2023-01-05T02:33:33.204Z,7.54
2023-01-05T02:36:38.340Z,7.55
2023-01-05T02:39:21.626Z,7.52
2023-01-05T02:42:01.490Z,7.55
2023-01-05T02:44:31.329Z,7.52
2023-01-05T02:47:08.454Z,7.54
2023-01-05T02:49:41.293Z,7.54
2023-01-05T02:52:12.259Z,7.54
2023-01-05T02:54:55.609Z,7.54
2023-01-05T02:57:50.005Z,7.49
2023-01-05T03:00:41.494Z,7.50
2023-01-05T03:03:19.557Z,7.49
2023-01-05T03:05:57.919Z,7.46
2023-01-05T03:08:32.655Z,7.45
2023-01-05T03:11:28.517Z,7.47
2023-01-05T03:14:12.896Z,7.43
2023-01-05T03:16:40.366Z,7.46
2023-01-05T03:19:33.935Z,7.45
2023-01-05T03:22:24.543Z,7.46
2023-01-05T03:25:11.227Z,7.46
2023-01-05T03:28:00.557Z,7.46
2023-01-05T03:30:58.281Z,7.42
2023-01-05T03:33:54.665Z,7.43
2023-01-05T03:36:24.884Z,7.45
2023-01-05T03:38:54.582Z,7.45
2023-01-05T03:41:24.040Z,7.45
2023-01-05T03:43:51.755Z,7.45
2023-01-05T03:46:22.364Z,7.44
2023-01-05T03:48:50.977Z,7.44
2023-01-05T03:51:20.206Z,7.45
2023-01-05T03:53:47.622Z,7.46
2023-01-05T03:56:14.761Z,7.43
2023-01-05T03:58:41.963Z,7.43
2023-01-05T04:01:09.368Z,7.44
2023-01-05T04:03:39.066Z,7.43
2023-01-05T04:06:07.853Z,7.43
2023-01-05T04:08:36.985Z,7.43
2023-01-05T04:11:15.238Z,7.43
2023-01-05T04:13:46.862Z,7.42
2023-01-05T04:16:14.724Z,7.43
2023-01-05T04:18:42.996Z,7.40
2023-01-05T04:21:10.418Z,7.43
2023-01-05T04:23:38.810Z,7.39
2023-01-05T04:26:06.286Z,7.42
2023-01-05T04:28:34.066Z,7.42
2023-01-05T04:31:01.922Z,7.40
2023-01-05T04:33:30.950Z,7.39
2023-01-05T04:35:58.241Z,7.42
2023-01-05T04:38:28.301Z,7.38
2023-01-05T04:40:55.839Z,7.38
2023-01-05T04:43:25.070Z,7.42
2023-01-05T04:45:52.220Z,7.43
2023-01-05T04:48:20.404Z,7.43
2023-01-05T04:50:54.135Z,7.44
2023-01-05T04:53:25.999Z,7.47
2023-01-05T04:55:53.371Z,7.45
2023-01-05T04:58:22.293Z,7.47
2023-01-05T05:00:50.996Z,7.49
2023-01-05T05:03:18.274Z,7.47
2023-01-05T05:05:45.707Z,7.45
2023-01-05T05:08:14.951Z,7.46
2023-01-05T05:10:42.079Z,7.46
2023-01-05T05:13:09.255Z,7.46
2023-01-05T05:15:36.526Z,7.41
2023-01-05T05:18:09.114Z,7.44
2023-01-05T05:20:42.691Z,7.44
2023-01-05T05:23:11.274Z,7.45
2023-01-05T05:25:38.302Z,7.46
2023-01-05T05:28:05.721Z,7.47
2023-01-05T05:30:32.973Z,7.45
2023-01-05T05:33:00.161Z,7.50
2023-01-05T05:35:27.271Z,7.52
2023-01-05T05:37:56.630Z,7.54
2023-01-05T05:40:24.521Z,7.52
2023-01-05T05:42:51.547Z,7.55
2023-01-05T05:45:18.750Z,7.57
2023-01-05T05:47:45.852Z,7.53
2023-01-05T05:50:13.018Z,7.59
2023-01-05T05:52:40.041Z,7.59
2023-01-05T05:55:08.005Z,7.57
2023-01-05T05:57:35.304Z,7.57
2023-01-05T06:00:02.814Z,7.55
2023-01-05T06:02:40.263Z,7.58
2023-01-05T06:05:07.942Z,7.43
2023-01-05T06:07:35.084Z,7.60
2023-01-05T06:10:02.300Z,7.59
2023-01-05T06:12:29.614Z,7.55
2023-01-05T06:14:56.707Z,7.57
2023-01-05T06:17:23.834Z,7.61
2023-01-05T06:19:50.953Z,7.61
2023-01-05T06:22:18.013Z,7.57
2023-01-05T06:24:45.061Z,7.59
2023-01-05T06:27:12.447Z,7.60
2023-01-05T06:29:39.517Z,7.59
2023-01-05T06:32:06.544Z,7.57
2023-01-05T06:34:33.796Z,7.54
2023-01-05T06:37:02.573Z,7.57
2023-01-05T06:39:29.833Z,7.57
2023-01-05T06:41:56.915Z,7.58
2023-01-05T06:44:24.031Z,7.54
2023-01-05T06:46:51.171Z,7.56
2023-01-05T06:49:18.620Z,7.55
2023-01-05T06:51:45.713Z,7.55
2023-01-05T06:54:13.019Z,7.42
2023-01-05T06:56:40.173Z,7.50
2023-01-05T06:59:07.416Z,7.49
2023-01-05T07:01:34.478Z,7.48
2023-01-05T07:04:01.885Z,7.45
2023-01-05T07:06:29.393Z,7.44
2023-01-05T07:08:56.495Z,7.43
2023-01-05T07:11:23.708Z,7.38
2023-01-05T07:13:53.472Z,7.43
2023-01-05T07:16:20.660Z,7.38
2023-01-05T07:18:47.755Z,7.42
2023-01-05T07:21:14.882Z,7.39
2023-01-05T07:23:42.037Z,7.37
2023-01-05T07:26:09.787Z,7.41
2023-01-05T07:28:38.113Z,7.41
2023-01-05T07:31:07.742Z,7.40
2023-01-05T07:33:40.089Z,7.40
2023-01-05T07:36:08.135Z,7.36
2023-01-05T07:38:35.275Z,7.39
2023-01-05T07:41:02.868Z,7.38
2023-01-05T07:43:30.039Z,7.35
2023-01-05T07:45:58.875Z,7.36
2023-01-05T07:48:26.052Z,7.31
2023-01-05T07:50:53.604Z,7.30
2023-01-05T07:53:20.756Z,7.29
2023-01-05T07:55:57.279Z,7.25
2023-01-05T07:58:24.855Z,7.27
2023-01-05T08:00:51.966Z,7.27
2023-01-05T08:03:19.384Z,7.19
2023-01-05T08:05:47.412Z,7.22
2023-01-05T08:08:20.565Z,7.23
2023-01-05T08:10:51.168Z,7.23
2023-01-05T08:13:36.737Z,7.24
2023-01-05T08:16:04.155Z,7.23
2023-01-05T08:18:31.380Z,7.25
2023-01-05T08:21:03.211Z,7.17
2023-01-05T08:23:31.693Z,7.25
2023-01-05T08:26:29.739Z,7.26
2023-01-05T08:28:56.796Z,7.24
2023-01-05T08:31:27.166Z,7.26
2023-01-05T08:34:05.099Z,7.27
2023-01-05T08:36:33.176Z,7.27
2023-01-05T08:39:01.889Z,7.26
2023-01-05T08:41:32.751Z,7.24
2023-01-05T08:44:02.838Z,7.26
2023-01-05T08:46:34.119Z,7.23
2023-01-05T08:49:03.588Z,7.24
2023-01-05T08:51:31.698Z,7.22
2023-01-05T08:53:59.068Z,7.22
2023-01-05T08:56:28.788Z,7.19
2023-01-05T08:59:01.456Z,7.23
2023-01-05T09:01:28.527Z,7.24
2023-01-05T09:03:55.703Z,7.25
2023-01-05T09:06:23.052Z,7.29
2023-01-05T09:08:50.163Z,7.33
2023-01-05T09:11:18.673Z,7.37
2023-01-05T09:13:48.734Z,7.40
2023-01-05T09:16:35.492Z,7.46
2023-01-05T09:19:06.911Z,7.47
2023-01-05T09:21:34.026Z,7.51
2023-01-05T09:24:01.261Z,7.37
2023-01-05T09:26:28.449Z,7.50
2023-01-05T09:28:55.601Z,7.50
2023-01-05T09:31:23.526Z,7.46
2023-01-05T09:33:51.056Z,7.45
2023-01-05T09:36:19.494Z,7.42
2023-01-05T09:38:51.476Z,7.39
2023-01-05T09:41:27.170Z,7.35
2023-01-05T09:44:00.843Z,7.33
2023-01-05T09:46:37.232Z,7.30
2023-01-05T09:49:07.200Z,7.31
2023-01-05T09:51:34.534Z,7.34
2023-01-05T09:54:02.750Z,7.33
2023-01-05T09:59:38.657Z,7.39
2023-01-05T10:02:27.383Z,7.44
2023-01-05T10:04:55.556Z,7.47
2023-01-05T10:07:53.800Z,7.52
2023-01-05T10:10:38.912Z,7.64
2023-01-05T10:13:08.770Z,7.73
2023-01-05T10:15:45.027Z,7.78
2023-01-05T10:18:18.824Z,7.80
2023-01-05T10:21:07.629Z,7.82
2023-01-05T10:23:40.748Z,7.78
2023-01-05T10:26:20.114Z,7.72
2023-01-05T10:29:07.401Z,7.75
2023-01-05T10:31:47.649Z,7.74
2023-01-05T10:34:24.793Z,7.72
2023-01-05T10:37:08.922Z,7.72
2023-01-05T10:40:07.533Z,7.71
2023-01-05T10:42:45.758Z,7.68
2023-01-05T10:45:18.106Z,7.64
2023-01-05T10:47:47.104Z,7.65
2023-01-05T10:50:30.669Z,7.64
2023-01-05T10:52:59.182Z,7.65
2023-01-05T10:55:30.339Z,7.64
2023-01-05T10:57:57.409Z,7.63
2023-01-05T11:00:40.868Z,7.65
2023-01-05T11:03:16.102Z,7.62
2023-01-05T11:05:46.813Z,7.63
2023-01-05T11:08:29.443Z,7.60
2023-01-05T11:11:01.987Z,7.63
2023-01-05T11:13:32.924Z,7.54
2023-01-05T11:16:12.817Z,7.62
2023-01-05T11:18:57.724Z,7.60
2023-01-05T11:21:26.244Z,7.62
2023-01-05T11:23:58.722Z,7.60
2023-01-05T11:26:29.711Z,7.65
2023-01-05T11:29:09.063Z,7.65
2023-01-05T11:31:57.657Z,7.67
2023-01-05T11:34:47.229Z,7.67
2023-01-05T11:37:25.464Z,7.69
2023-01-05T11:39:55.804Z,7.69
2023-01-05T11:42:26.599Z,7.65
2023-01-05T11:45:07.952Z,7.64
2023-01-05T11:47:50.785Z,7.61
2023-01-05T11:50:26.980Z,7.58
2023-01-05T11:52:56.904Z,7.53
2023-01-05T11:55:32.002Z,7.47
2023-01-05T11:58:18.013Z,7.39
2023-01-05T12:01:06.211Z,7.36
2023-01-05T12:03:51.735Z,7.27
2023-01-05T12:06:55.920Z,7.28
2023-01-05T12:09:23.124Z,7.29
2023-01-05T12:12:10.735Z,7.28
2023-01-05T12:14:47.064Z,7.30
2023-01-05T12:17:15.846Z,7.30
2023-01-05T12:20:13.600Z,7.30
2023-01-05T12:22:59.362Z,7.30
2023-01-05T12:25:39.095Z,7.30
2023-01-05T12:28:41.339Z,7.27
2023-01-05T12:34:52.495Z,7.26
2023-01-05T12:37:25.715Z,7.23
2023-01-05T12:40:22.019Z,7.19
2023-01-05T12:43:02.537Z,7.10
2023-01-05T12:45:54.394Z,7.05
2023-01-05T12:48:36.838Z,7.01
2023-01-05T12:51:18.794Z,6.99
2023-01-05T12:54:08.942Z,6.96
2023-01-05T12:56:39.092Z,6.95
2023-01-05T12:59:34.023Z,6.85
2023-01-05T13:02:22.421Z,6.93
2023-01-05T13:05:02.878Z,6.91
2023-01-05T13:07:47.634Z,6.90
2023-01-05T13:10:45.470Z,6.90
2023-01-05T13:13:21.752Z,6.91
2023-01-05T13:16:14.337Z,6.92
2023-01-05T13:18:49.651Z,6.90
2023-01-05T13:21:16.935Z,6.88
2023-01-05T13:23:49.360Z,6.90
2023-01-05T13:26:19.463Z,6.75
2023-01-05T13:28:48.753Z,6.89
2023-01-05T13:31:31.158Z,6.88
2023-01-05T13:34:26.723Z,6.82
2023-01-05T13:37:06.285Z,6.77
2023-01-05T13:40:08.811Z,6.70
2023-01-05T13:43:09.923Z,6.65
2023-01-05T13:45:52.837Z,6.60
2023-01-05T13:48:58.079Z,6.56
2023-01-05T13:51:55.403Z,6.49
2023-01-05T13:55:00.300Z,6.20
2023-01-05T13:57:31.591Z,6.21
2023-01-05T14:00:10.997Z,6.06
2023-01-05T14:02:54.651Z,5.89
2023-01-05T14:05:31.158Z,5.72
2023-01-05T14:08:01.803Z,5.66
2023-01-05T14:10:31.744Z,5.61
2023-01-05T14:12:59.057Z,5.54
2023-01-05T14:15:42.591Z,5.50
2023-01-05T14:18:33.188Z,5.42
2023-01-05T14:21:10.531Z,5.41
2023-01-05T14:23:37.624Z,5.39
2023-01-05T14:26:06.995Z,5.35
2023-01-05T14:28:34.081Z,5.32
2023-01-05T14:31:19.232Z,5.27
2023-01-05T14:33:52.840Z,5.21
2023-01-05T14:36:49.573Z,5.20
2023-01-05T14:39:19.491Z,5.17
2023-01-05T14:42:11.325Z,5.17
2023-01-05T14:44:41.275Z,5.14
2023-01-05T14:47:10.202Z,5.13
2023-01-05T14:49:44.171Z,5.12
2023-01-05T14:52:38.963Z,5.11
2023-01-05T14:55:21.243Z,5.11
2023-01-05T14:57:54.164Z,5.09
2023-01-05T15:00:39.736Z,5.03
2023-01-05T15:03:21.311Z,5.00
2023-01-05T15:06:05.756Z,5.01
2023-01-05T15:09:08.975Z,5.02
2023-01-05T15:11:45.393Z,4.99
2023-01-05T15:14:35.336Z,5.00
2023-01-05T15:17:42.318Z,4.91
2023-01-05T15:20:27.334Z,4.90
2023-01-05T15:23:15.228Z,4.87
2023-01-05T15:26:02.767Z,4.89
2023-01-05T15:28:48.730Z,4.87
2023-01-05T15:31:30.708Z,4.85
2023-01-05T15:34:16.206Z,4.85
2023-01-05T15:37:07.721Z,4.87
2023-01-05T15:39:50.325Z,4.89
2023-01-05T15:42:32.804Z,4.86
2023-01-05T15:44:59.910Z,4.91
2023-01-05T15:47:29.727Z,4.91
2023-01-05T15:50:00.060Z,4.88
2023-01-05T15:52:40.259Z,4.81
2023-01-05T15:55:19.375Z,4.77
2023-01-05T15:58:03.944Z,4.75
2023-01-05T16:00:36.072Z,4.74
2023-01-05T16:03:22.253Z,4.73
2023-01-05T16:05:55.868Z,4.67
2023-01-05T16:08:23.089Z,4.68
2023-01-05T16:11:03.696Z,4.63
2023-01-05T16:13:35.920Z,4.61
2023-01-05T16:16:11.394Z,4.61
2023-01-05T16:18:42.579Z,4.60
2023-01-05T16:21:40.419Z,4.63
2023-01-05T16:24:33.924Z,4.57
2023-01-05T16:27:04.415Z,4.59
2023-01-05T16:29:38.129Z,4.61
2023-01-05T16:32:25.239Z,4.63
2023-01-05T16:34:52.813Z,4.60
2023-01-05T16:37:19.865Z,4.63
2023-01-05T16:39:47.999Z,4.60
2023-01-05T16:42:40.271Z,4.59
2023-01-05T16:45:20.399Z,4.59
2023-01-05T16:47:47.760Z,4.60
2023-01-05T16:50:37.722Z,4.62
2023-01-05T16:53:14.584Z,4.62
2023-01-05T16:55:42.186Z,4.56
2023-01-05T16:58:30.911Z,4.59
2023-01-05T17:01:10.623Z,4.56
2023-01-05T17:03:37.711Z,4.54
2023-01-05T17:06:05.957Z,4.55
2023-01-05T17:08:37.792Z,4.55
2023-01-05T17:11:12.453Z,4.52
2023-01-05T17:13:52.453Z,4.49
2023-01-05T17:16:21.321Z,4.53
2023-01-05T17:18:50.116Z,4.57
2023-01-05T17:21:21.195Z,4.55
2023-01-05T17:23:54.187Z,4.56
2023-01-05T17:26:25.346Z,4.55
2023-01-05T17:28:55.489Z,4.59
2023-01-05T17:31:22.708Z,4.51
2023-01-05T17:33:49.808Z,4.55
2023-01-05T17:36:18.390Z,4.49
2023-01-05T17:38:46.582Z,4.54
2023-01-05T17:41:16.082Z,4.55
2023-01-05T17:43:45.229Z,4.57
2023-01-05T17:46:21.457Z,4.54
2023-01-05T17:48:49.537Z,4.58
2023-01-05T17:51:16.685Z,4.58
2023-01-05T17:53:43.825Z,4.56
2023-01-05T17:56:11.005Z,4.57
2023-01-05T17:58:39.306Z,4.45
2023-01-05T18:01:06.862Z,4.54
2023-01-05T18:03:33.936Z,4.56
2023-01-05T18:06:02.059Z,4.55
2023-01-05T18:08:29.657Z,4.52
2023-01-05T18:10:56.949Z,4.51
2023-01-05T18:13:24.813Z,4.42
2023-01-05T18:15:53.399Z,4.51
2023-01-05T18:18:21.691Z,4.44
2023-01-05T18:20:52.193Z,4.50
2023-01-05T18:23:19.855Z,4.48
2023-01-05T18:25:46.986Z,4.48
2023-01-05T18:28:14.114Z,4.48
2023-01-05T18:30:42.355Z,4.47
2023-01-05T18:35:43.790Z,4.47
2023-01-05T18:38:11.291Z,4.46
2023-01-05T18:40:38.802Z,4.47
2023-01-05T18:43:05.937Z,4.45
2023-01-05T18:45:39.127Z,4.44
2023-01-05T18:48:07.495Z,4.46
2023-01-05T18:50:34.540Z,4.45
2023-01-05T18:53:01.664Z,4.44
2023-01-05T18:55:29.163Z,4.35
2023-01-05T18:57:56.399Z,4.40
2023-01-05T19:00:23.542Z,4.41
2023-01-05T19:02:50.674Z,4.41
2023-01-05T19:05:17.848Z,4.39
2023-01-05T19:07:45.133Z,4.41
2023-01-05T19:10:12.314Z,4.44
2023-01-05T19:12:39.416Z,4.44
2023-01-05T19:15:06.941Z,4.44
2023-01-05T19:17:34.480Z,4.46
2023-01-05T19:20:01.913Z,4.44
2023-01-05T19:22:29.104Z,4.44
2023-01-05T19:24:57.088Z,4.43
2023-01-05T19:27:24.203Z,4.43
2023-01-05T19:29:51.456Z,4.42
2023-01-05T19:32:18.694Z,4.41
2023-01-05T19:34:46.013Z,4.32
2023-01-05T19:37:13.202Z,4.43
2023-01-05T19:39:40.317Z,4.43
2023-01-05T19:42:07.541Z,4.47
2023-01-05T19:44:34.923Z,4.46
2023-01-05T19:47:02.109Z,4.44
2023-01-05T19:49:29.460Z,4.46
2023-01-05T19:51:56.873Z,4.46
2023-01-05T19:54:26.474Z,4.47
2023-01-05T19:56:55.038Z,4.47
2023-01-05T19:59:26.472Z,4.46
2023-01-05T20:01:55.061Z,4.46
2023-01-05T20:04:22.293Z,4.44
2023-01-05T20:06:49.327Z,4.42
2023-01-05T20:09:19.364Z,4.45
2023-01-05T20:11:49.124Z,4.46
2023-01-05T20:14:22.180Z,4.36
2023-01-05T20:16:57.633Z,4.41
2023-01-05T20:19:29.248Z,4.34
2023-01-05T20:21:58.100Z,4.38
2023-01-05T20:24:28.284Z,4.39
2023-01-05T20:26:58.580Z,4.38
2023-01-05T20:29:26.743Z,4.35
2023-01-05T20:32:03.176Z,4.39
2023-01-05T20:34:32.349Z,4.36
2023-01-05T20:37:00.589Z,4.37
2023-01-05T20:39:28.140Z,4.34
2023-01-05T20:41:55.414Z,4.32
2023-01-05T20:44:25.020Z,4.33
2023-01-05T20:46:54.066Z,4.32
2023-01-05T20:49:22.432Z,4.32
2023-01-05T20:51:49.961Z,4.31
2023-01-05T20:54:17.473Z,4.30
2023-01-05T20:56:46.638Z,4.29
2023-01-05T20:59:18.017Z,4.29
2023-01-05T21:01:46.326Z,4.20
2023-01-05T21:04:14.070Z,4.25
2023-01-05T21:06:42.337Z,4.12
2023-01-05T21:09:10.190Z,4.25
2023-01-05T21:11:38.128Z,4.19
2023-01-05T21:14:06.988Z,4.26
2023-01-05T21:16:37.529Z,4.25
2023-01-05T21:19:06.085Z,4.24
2023-01-05T21:21:34.713Z,4.22
2023-01-05T21:24:03.001Z,4.22
2023-01-05T21:26:30.233Z,4.21
2023-01-05T21:28:57.360Z,4.19
2023-01-05T21:31:26.168Z,4.21
2023-01-05T21:33:54.436Z,4.22
2023-01-05T21:36:24.664Z,4.22
2023-01-05T21:39:01.624Z,4.19
2023-01-05T21:41:49.617Z,4.21
2023-01-05T21:44:17.517Z,4.18
2023-01-05T21:46:44.968Z,4.18
2023-01-05T21:49:13.089Z,4.17
2023-01-05T21:51:59.491Z,4.17
2023-01-05T21:54:44.950Z,4.18
2023-01-05T21:57:12.168Z,4.17
2023-01-05T21:59:39.846Z,4.20
2023-01-05T22:02:07.752Z,4.17
2023-01-05T22:04:35.059Z,4.17
2023-01-05T22:07:02.728Z,4.18
2023-01-05T22:09:29.935Z,4.17
2023-01-05T22:11:57.083Z,4.16
2023-01-05T22:14:24.286Z,4.21
2023-01-05T22:16:51.482Z,4.22
2023-01-05T22:19:18.688Z,4.22
2023-01-05T22:21:46.023Z,4.19
2023-01-05T22:24:13.359Z,4.22
2023-01-05T22:26:40.607Z,4.21
2023-01-05T22:29:07.781Z,4.20
2023-01-05T22:31:36.314Z,4.20
2023-01-05T22:34:04.212Z,4.18
2023-01-05T22:36:32.383Z,4.16
2023-01-05T22:39:00.914Z,4.17
2023-01-05T22:41:30.818Z,4.15
2023-01-05T22:43:58.722Z,4.13
2023-01-05T22:46:28.040Z,4.11
2023-01-05T22:48:56.881Z,4.10
2023-01-05T22:51:35.669Z,4.04
2023-01-05T22:54:03.828Z,4.02
2023-01-05T22:56:32.523Z,4.05
2023-01-05T22:59:00.479Z,4.04
2023-01-05T23:01:35.961Z,4.04
2023-01-05T23:04:05.485Z,4.03
2023-01-05T23:06:33.421Z,4.00
2023-01-05T23:09:01.014Z,3.94
2023-01-05T23:11:30.735Z,3.99
2023-01-05T23:13:59.577Z,4.02
2023-01-05T23:16:27.802Z,4.00
2023-01-05T23:18:55.482Z,3.96
2023-01-05T23:21:24.645Z,4.02
2023-01-05T23:23:53.187Z,4.00
2023-01-05T23:26:21.079Z,3.99
2023-01-05T23:28:48.981Z,3.96
2023-01-05T23:31:17.628Z,3.95
2023-01-05T23:33:45.752Z,3.95
2023-01-05T23:36:15.806Z,3.91
2023-01-05T23:38:43.649Z,3.84
2023-01-05T23:41:13.118Z,3.81
2023-01-05T23:43:41.683Z,3.75
2023-01-05T23:46:11.914Z,3.71
2023-01-05T23:48:39.301Z,3.65
2023-01-05T23:51:07.998Z,3.60
2023-01-05T23:53:35.009Z,3.65
2023-01-05T23:56:29.951Z,3.66
2023-01-05T23:58:58.380Z,3.66
